Time;durP1;ratioP1;P1;durP2;ratioP2;P2;SDS_P1;SDS_P2;PMS_P1;PMS_P2;Temp;Humidity;BMP_temperature;BMP_pressure;BME280_temperature;BME280_humidity;BME280_pressure;Samples;Min_cycle;Max_cycle;Signal;HPM_P1;HPM_P2
2021/05/16 00:02:15;;;;;;;9.52;6.40;;;;;;;14.28;67.02;99171.41;5090965;28;20474;-50
2021/05/16 00:04:40;;;;;;;7.65;6.45;;;;;;;14.58;67.43;99220.28;5091133;28;20036;-51
2021/05/16 00:07:06;;;;;;;9.07;6.05;;;;;;;14.51;67.41;99201.25;5090188;28;20428;-47
2021/05/16 00:09:32;;;;;;;6.43;5.82;;;;;;;14.55;67.45;99220.63;5090841;28;20032;-49
2021/05/16 00:11:58;;;;;;;5.97;5.47;;;;;;;14.57;67.31;99215.91;5091059;28;20040;-46
2021/05/16 00:14:24;;;;;;;6.43;5.90;;;;;;;14.46;67.33;99207.13;5091281;28;20028;-52
2021/05/16 00:16:49;;;;;;;10.07;5.88;;;;;;;14.52;67.35;99220.94;5090879;28;20401;-52
2021/05/16 00:19:15;;;;;;;7.45;6.10;;;;;;;14.43;67.58;99218.22;5090634;28;20032;-49
2021/05/16 00:21:41;;;;;;;8.73;6.63;;;;;;;14.37;67.61;99208.09;5091040;28;20047;-55
2021/05/16 00:24:07;;;;;;;9.05;6.38;;;;;;;14.42;67.98;99224.59;5090138;28;20035;-52
2021/05/16 00:26:32;;;;;;;6.80;6.20;;;;;;;14.49;67.74;99249.03;5090339;28;20039;-50
2021/05/16 00:29:05;;;;;;;7.03;6.32;;;;;;;14.49;67.81;99241.81;5090756;28;20039;-51
2021/05/16 00:31:30;;;;;;;8.55;5.95;;;;;;;14.49;67.67;99238.28;5090527;28;20040;-53
2021/05/16 00:33:56;;;;;;;7.80;6.57;;;;;;;14.41;67.82;99231.00;5090929;28;20089;-48
2021/05/16 00:36:23;;;;;;;8.60;6.60;;;;;;;14.42;68.16;99238.06;5090689;28;20032;-51
2021/05/16 00:38:49;;;;;;;8.05;5.97;;;;;;;14.36;68.16;99233.34;5088782;28;20525;-52
2021/05/16 00:41:14;;;;;;;7.65;6.60;;;;;;;13.95;67.99;99165.88;5087921;28;20080;-48
2021/05/16 00:43:40;;;;;;;7.57;6.55;;;;;;;14.47;68.11;99237.59;5088277;28;20040;-52
2021/05/16 00:46:09;;;;;;;7.93;6.40;;;;;;;14.44;68.67;99249.53;5088770;28;20381;-50
2021/05/16 00:48:38;;;;;;;7.97;6.60;;;;;;;14.47;68.82;99257.31;5088213;28;20406;-51
2021/05/16 00:51:04;;;;;;;6.95;6.28;;;;;;;14.43;68.50;99255.09;5088152;28;20525;-48
2021/05/16 00:53:31;;;;;;;8.00;7.20;;;;;;;14.44;68.43;99252.22;5089337;28;20133;-49
2021/05/16 00:55:57;;;;;;;7.53;6.80;;;;;;;14.42;68.78;99265.00;5087183;28;20519;-46
2021/05/16 00:58:24;;;;;;;9.02;7.15;;;;;;;14.42;69.05;99273.09;5087807;28;20127;-46
2021/05/16 01:00:51;;;;;;;9.68;7.40;;;;;;;14.43;68.79;99269.38;5087887;28;20032;-49
2021/05/16 01:03:20;;;;;;;8.40;7.45;;;;;;;14.41;69.33;99273.28;5088126;28;20039;-53
2021/05/16 01:05:46;;;;;;;9.40;7.60;;;;;;;14.39;69.13;99270.72;5088530;28;20497;-50
2021/05/16 01:08:12;;;;;;;8.35;6.97;;;;;;;14.39;69.28;99269.91;5088535;28;20058;-53
2021/05/16 01:10:38;;;;;;;8.60;7.50;;;;;;;14.27;69.01;99256.72;5087966;28;20040;-54
2021/05/16 01:13:05;;;;;;;8.68;7.15;;;;;;;14.32;69.11;99275.06;5087842;28;20038;-50
2021/05/16 01:15:32;;;;;;;12.30;7.53;;;;;;;14.36;69.44;99281.81;5088919;28;20032;-53
2021/05/16 01:17:58;;;;;;;11.20;8.05;;;;;;;14.40;69.36;99279.66;5088920;28;20039;-53
2021/05/16 01:20:30;;;;;;;10.63;7.45;;;;;;;14.38;69.65;99295.13;5088758;28;20409;-52
2021/05/16 01:23:00;;;;;;;8.80;7.20;;;;;;;14.40;70.02;99291.25;5088650;28;20150;-49
2021/05/16 01:25:27;;;;;;;8.65;7.00;;;;;;;14.37;69.45;99288.06;5098315;28;20038;-46
2021/05/16 01:27:53;;;;;;;11.50;7.47;;;;;;;14.35;69.37;99288.22;5108309;28;20036;-51
2021/05/16 01:30:20;;;;;;;8.23;7.35;;;;;;;14.39;69.75;99297.66;5107982;28;20034;-51
2021/05/16 01:32:46;;;;;;;9.88;7.75;;;;;;;14.39;69.51;99294.13;5108077;28;20038;-47
2021/05/16 01:35:12;;;;;;;9.07;7.55;;;;;;;14.31;69.42;99290.38;5108133;28;20057;-52
2021/05/16 01:37:37;;;;;;;11.95;7.30;;;;;;;14.40;69.53;99291.25;5108364;28;20118;-51
2021/05/16 01:40:06;;;;;;;7.88;6.95;;;;;;;14.36;69.57;99297.97;5108190;28;20048;-50
2021/05/16 01:42:31;;;;;;;9.60;7.32;;;;;;;14.38;69.44;99295.97;5110088;28;20435;-50
2021/05/16 01:45:02;;;;;;;7.97;7.07;;;;;;;14.46;69.28;99301.38;5110706;28;20123;-47
2021/05/16 01:47:31;;;;;;;8.50;7.07;;;;;;;14.48;69.58;99296.69;5110392;28;20031;-50
2021/05/16 01:50:06;;;;;;;9.57;7.63;;;;;;;14.55;69.81;99306.81;5110120;28;20027;-49
2021/05/16 01:52:32;;;;;;;7.85;7.07;;;;;;;14.50;69.17;99305.47;5110611;28;20069;-48
2021/05/16 01:54:58;;;;;;;8.48;7.20;;;;;;;14.46;69.05;99293.28;5109980;28;20489;-51
2021/05/16 01:57:24;;;;;;;8.57;7.53;;;;;;;14.60;69.01;99308.03;5110124;28;20090;-51
2021/05/16 01:59:50;;;;;;;9.27;7.28;;;;;;;14.64;68.73;99317.47;5110249;28;20039;-51
2021/05/16 02:02:16;;;;;;;8.85;7.43;;;;;;;14.65;68.90;99329.06;5109765;28;20126;-45
2021/05/16 02:04:42;;;;;;;9.30;7.25;;;;;;;14.73;68.59;99312.13;5110108;28;20114;-50
2021/05/16 02:07:10;;;;;;;8.05;7.25;;;;;;;14.74;68.98;99317.38;5109696;28;20552;-53
2021/05/16 02:09:36;;;;;;;12.27;7.65;;;;;;;14.70;68.53;99312.44;5110128;28;20497;-54
2021/05/16 02:12:02;;;;;;;7.68;6.57;;;;;;;14.68;68.60;99314.44;5110202;28;20580;-50
2021/05/16 02:14:32;;;;;;;9.55;7.50;;;;;;;14.76;69.09;99318.03;5110113;28;20114;-52
2021/05/16 02:17:00;;;;;;;10.13;7.30;;;;;;;14.99;68.20;99341.69;5110158;28;20034;-47
2021/05/16 02:19:25;;;;;;;10.23;7.55;;;;;;;15.03;67.68;99326.88;5109606;28;20024;-50
2021/05/16 02:21:51;;;;;;;7.85;6.80;;;;;;;15.23;67.23;99339.19;5109809;28;20032;-47
2021/05/16 02:24:18;;;;;;;8.75;7.85;;;;;;;15.35;67.05;99345.97;5109943;28;20035;-49
2021/05/16 02:26:44;;;;;;;7.88;7.00;;;;;;;15.49;66.46;99341.75;5109924;28;20065;-49
2021/05/16 02:29:10;;;;;;;14.43;7.30;;;;;;;15.44;66.16;99327.94;5110269;28;20078;-48
2021/05/16 02:31:36;;;;;;;8.07;7.28;;;;;;;15.58;66.06;99348.00;5113622;28;20457;-51
2021/05/16 02:34:03;;;;;;;10.85;7.22;;;;;;;15.59;66.03;99341.59;5114202;28;20030;-45
2021/05/16 02:36:29;;;;;;;8.02;7.22;;;;;;;15.61;65.97;99340.41;5112894;28;20036;-48
2021/05/16 02:38:54;;;;;;;11.07;7.55;;;;;;;15.64;65.79;99350.84;5113078;28;20047;-56
2021/05/16 02:41:20;;;;;;;7.47;6.78;;;;;;;15.57;65.75;99349.03;5094031;28;20063;-48
2021/05/16 02:43:45;;;;;;;8.98;7.60;;;;;;;15.68;65.72;99353.25;5090517;28;20047;-51
2021/05/16 02:46:11;;;;;;;8.68;7.00;;;;;;;15.53;65.52;99326.91;5090648;28;20024;-50
2021/05/16 02:48:37;;;;;;;8.02;7.20;;;;;;;15.46;65.31;99310.56;5091168;28;20124;-48
2021/05/16 02:51:03;;;;;;;8.98;7.05;;;;;;;15.65;65.15;99328.25;5091693;28;20028;-53
2021/05/16 02:53:28;;;;;;;12.95;7.47;;;;;;;15.81;65.15;99361.66;5090568;28;20039;-49
2021/05/16 02:55:54;;;;;;;10.32;7.38;;;;;;;15.77;64.75;99338.72;5090392;28;20039;-47
2021/05/16 02:58:19;;;;;;;9.73;7.50;;;;;;;15.91;64.74;99362.38;5092401;28;20189;-50
2021/05/16 03:00:45;;;;;;;11.57;7.78;;;;;;;15.90;64.38;99357.97;5092985;28;20028;-49
2021/05/16 03:03:10;;;;;;;9.45;7.68;;;;;;;15.72;64.17;99312.22;5092381;28;20405;-48
2021/05/16 03:05:36;;;;;;;8.55;7.60;;;;;;;15.95;63.99;99362.03;5092489;28;20038;-47
2021/05/16 03:08:03;;;;;;;10.45;7.72;;;;;;;16.16;63.55;99366.88;5092354;28;20039;-50
2021/05/16 03:10:28;;;;;;;8.98;7.63;;;;;;;16.12;63.66;99358.28;5092608;28;20499;-47
2021/05/16 03:12:54;;;;;;;8.15;7.45;;;;;;;16.02;63.31;99325.22;5092254;28;20544;-51
2021/05/16 03:15:20;;;;;;;8.30;7.38;;;;;;;16.36;63.06;99384.41;5092397;28;20028;-52
2021/05/16 03:17:45;;;;;;;8.40;7.50;;;;;;;16.34;62.97;99355.84;5092414;28;20046;-47
2021/05/16 03:20:12;;;;;;;7.75;6.95;;;;;;;16.58;62.58;99381.97;5092615;28;20122;-52
2021/05/16 03:22:37;;;;;;;9.38;7.20;;;;;;;16.79;61.85;99370.56;5092458;28;20096;-48
2021/05/16 03:25:05;;;;;;;11.88;7.10;;;;;;;17.51;59.98;99381.34;5088631;28;20028;-54
2021/05/16 03:27:30;;;;;;;8.02;6.40;;;;;;;18.37;57.63;99377.59;5090794;28;20555;-48
2021/05/16 03:29:55;;;;;;;7.43;6.72;;;;;;;19.31;55.21;99378.81;5104053;28;20028;-52
2021/05/16 03:32:21;;;;;;;7.78;6.88;;;;;;;20.16;52.48;99369.16;5106972;28;20404;-48
2021/05/16 03:34:46;;;;;;;7.45;6.75;;;;;;;21.10;50.29;99375.13;5091101;28;20028;-48
2021/05/16 03:37:12;;;;;;;8.02;6.75;;;;;;;21.90;48.13;99368.16;5090701;28;20036;-48
2021/05/16 03:39:38;;;;;;;9.48;7.00;;;;;;;22.57;45.69;99331.81;5091587;28;20540;-51
2021/05/16 03:42:04;;;;;;;8.10;6.70;;;;;;;23.53;43.89;99359.28;5089976;28;20040;-52
2021/05/16 03:44:30;;;;;;;7.28;6.53;;;;;;;24.41;42.04;99364.88;5096268;28;20043;-50
2021/05/16 03:46:55;;;;;;;7.35;6.60;;;;;;;25.07;40.03;99354.22;5102417;28;20032;-51
2021/05/16 03:49:22;;;;;;;7.15;6.25;;;;;;;25.86;38.16;99377.16;5103036;28;20032;-48
2021/05/16 03:51:48;;;;;;;9.27;6.05;;;;;;;26.60;36.64;99366.78;5095346;28;20044;-49
2021/05/16 03:54:15;;;;;;;7.68;6.03;;;;;;;27.18;35.63;99364.16;5107506;28;20122;-48
2021/05/16 03:56:41;;;;;;;7.80;5.88;;;;;;;27.71;33.79;99364.03;5097577;28;20057;-54
2021/05/16 03:59:07;;;;;;;6.65;6.05;;;;;;;27.87;33.12;99319.19;5100415;28;20413;-53
2021/05/16 04:01:33;;;;;;;7.68;5.93;;;;;;;28.70;31.87;99369.97;5090602;28;20497;-48
2021/05/16 04:03:59;;;;;;;6.05;5.55;;;;;;;29.16;30.57;99371.63;5107436;28;20434;-51
2021/05/16 04:06:25;;;;;;;6.63;5.90;;;;;;;29.73;29.63;99374.97;5090367;28;20028;-53
2021/05/16 04:08:51;;;;;;;5.53;5.05;;;;;;;30.22;28.69;99371.25;5088442;28;20169;-47
2021/05/16 04:11:16;;;;;;;8.77;5.53;;;;;;;30.79;27.98;99374.38;5088034;28;20032;-56
2021/05/16 04:13:42;;;;;;;5.88;5.32;;;;;;;31.04;27.03;99375.56;5090730;28;20036;-54
2021/05/16 04:16:08;;;;;;;5.95;5.18;;;;;;;31.43;26.45;99361.28;5090906;28;20076;-54
2021/05/16 04:18:33;;;;;;;5.70;5.30;;;;;;;31.94;25.59;99381.81;5091022;28;20032;-48
2021/05/16 04:21:01;;;;;;;7.63;4.78;;;;;;;32.29;25.45;99382.91;5091358;28;20032;-51
2021/05/16 04:23:27;;;;;;;6.07;5.57;;;;;;;32.60;24.25;99371.78;5090518;28;20036;-49
2021/05/16 04:25:52;;;;;;;10.63;5.25;;;;;;;32.99;23.84;99384.13;5091011;28;20032;-50
2021/05/16 04:28:18;;;;;;;5.95;5.43;;;;;;;33.31;23.28;99368.16;5091102;28;20462;-52
2021/05/16 04:30:43;;;;;;;5.88;5.40;;;;;;;33.62;22.92;99327.16;5090785;28;20050;-50
2021/05/16 04:33:09;;;;;;;5.40;5.00;;;;;;;34.49;21.64;99388.63;5090718;28;20039;-50
2021/05/16 04:35:35;;;;;;;5.25;4.82;;;;;;;34.85;21.22;99384.59;5090775;28;20028;-49
2021/05/16 04:38:01;;;;;;;5.90;5.40;;;;;;;35.37;20.49;99383.09;5090753;28;20047;-50
2021/05/16 04:40:27;;;;;;;5.47;5.07;;;;;;;35.86;20.12;99389.31;5090555;28;20066;-52
2021/05/16 04:42:52;;;;;;;5.28;4.88;;;;;;;36.53;19.45;99388.16;5090348;28;20036;-48
2021/05/16 04:45:19;;;;;;;5.25;4.80;;;;;;;36.12;19.47;99381.34;5090423;28;20028;-51
2021/05/16 04:47:45;;;;;;;4.90;4.53;;;;;;;36.14;19.58;99387.44;5090679;28;20405;-53
2021/05/16 04:50:13;;;;;;;5.63;4.95;;;;;;;36.48;19.19;99396.59;5090215;28;20497;-49
2021/05/16 04:52:39;;;;;;;5.72;4.85;;;;;;;36.95;18.39;99399.31;5090131;28;20104;-50
2021/05/16 04:55:05;;;;;;;5.68;5.03;;;;;;;37.29;17.78;99398.03;5090692;28;20028;-48
2021/05/16 04:57:30;;;;;;;6.13;5.55;;;;;;;37.85;17.78;99388.66;5090581;28;20047;-52
2021/05/16 04:59:56;;;;;;;5.20;4.78;;;;;;;38.28;17.08;99398.47;5090165;28;20027;-49
2021/05/16 05:02:22;;;;;;;5.38;4.88;;;;;;;38.74;16.54;99405.59;5090124;28;20074;-55
2021/05/16 05:04:48;;;;;;;5.13;4.55;;;;;;;39.37;15.75;99395.41;5090742;28;20063;-53
2021/05/16 05:07:13;;;;;;;5.38;4.88;;;;;;;39.75;15.56;99403.97;5090572;28;20543;-49
2021/05/16 05:09:39;;;;;;;5.50;4.88;;;;;;;39.90;15.36;99404.63;5090352;28;20060;-52
2021/05/16 05:12:05;;;;;;;5.50;4.72;;;;;;;39.98;15.29;99417.81;5090359;28;20036;-57
2021/05/16 05:14:31;;;;;;;4.75;4.10;;;;;;;40.04;14.97;99415.69;5090310;28;20035;-57
2021/05/16 05:16:57;;;;;;;5.13;4.72;;;;;;;40.11;14.60;99401.13;5089306;28;20734;-53
2021/05/16 05:19:24;;;;;;;4.47;4.18;;;;;;;40.24;14.62;99419.75;5087465;28;20510;-55
2021/05/16 05:21:49;;;;;;;4.72;4.32;;;;;;;40.56;14.34;99414.69;5087501;28;20036;-52
2021/05/16 05:24:15;;;;;;;4.97;4.60;;;;;;;40.92;13.89;99409.75;5087741;28;20528;-59
2021/05/16 05:26:40;;;;;;;4.63;4.22;;;;;;;40.99;13.84;99409.22;5088270;28;20165;-47
2021/05/16 05:29:06;;;;;;;4.63;4.10;;;;;;;41.35;13.73;99407.03;5087403;28;20111;-54
2021/05/16 05:31:31;;;;;;;4.55;4.13;;;;;;;42.01;12.97;99414.72;5087235;28;20100;-52
2021/05/16 05:33:57;;;;;;;4.60;4.20;;;;;;;42.54;12.54;99407.75;5089184;28;20032;-49
2021/05/16 05:36:22;;;;;;;5.22;3.95;;;;;;;42.79;12.35;99408.53;5089858;28;20086;-58
2021/05/16 05:38:48;;;;;;;4.32;4.03;;;;;;;43.32;12.00;99416.28;5089357;28;20056;-50
2021/05/16 05:41:14;;;;;;;4.85;4.00;;;;;;;43.84;11.78;99417.41;5071782;28;20488;-52
2021/05/16 05:43:40;;;;;;;4.85;3.72;;;;;;;43.90;11.05;99392.59;5089514;28;20084;-54
2021/05/16 05:46:06;;;;;;;5.20;4.00;;;;;;;44.30;11.17;99416.25;5089718;28;20036;-49
2021/05/16 05:48:32;;;;;;;4.13;3.80;;;;;;;44.58;10.69;99423.81;5089498;28;20031;-53
2021/05/16 05:50:58;;;;;;;4.45;3.67;;;;;;;44.88;10.64;99414.88;5089467;28;20122;-51
2021/05/16 05:53:24;;;;;;;9.23;3.75;;;;;;;44.96;10.37;99396.94;5089894;28;20185;-48
2021/05/16 05:55:49;;;;;;;4.00;3.70;;;;;;;45.54;10.12;99422.84;5089572;28;20069;-52
2021/05/16 05:58:15;;;;;;;4.28;3.92;;;;;;;45.67;10.08;99420.69;5089944;28;20118;-49
2021/05/16 06:00:41;;;;;;;7.70;3.90;;;;;;;45.97;9.90;99415.25;5089795;28;20074;-51
2021/05/16 06:03:06;;;;;;;3.90;3.50;;;;;;;46.12;9.66;99409.88;5089591;28;20173;-52
2021/05/16 06:05:32;;;;;;;3.92;3.50;;;;;;;46.12;9.34;99433.34;5092718;28;20032;-54
2021/05/16 06:07:57;;;;;;;4.00;3.67;;;;;;;46.40;9.14;99426.53;5093578;28;20440;-53
2021/05/16 06:10:24;;;;;;;3.28;3.00;;;;;;;46.57;9.03;99425.22;5093386;28;20059;-54
2021/05/16 06:12:50;;;;;;;4.25;3.28;;;;;;;46.52;8.59;99422.72;5093126;28;20063;-49
2021/05/16 06:15:16;;;;;;;3.63;3.25;;;;;;;46.81;8.36;99430.88;5093833;28;20078;-53
2021/05/16 06:17:41;;;;;;;3.70;3.40;;;;;;;47.03;8.33;99429.22;5093700;28;20401;-49
2021/05/16 06:20:08;;;;;;;3.60;3.30;;;;;;;47.36;8.07;99424.81;5093123;28;20296;-47
2021/05/16 06:22:34;;;;;;;3.60;3.30;;;;;;;47.50;8.28;99367.47;5093132;28;20028;-52
2021/05/16 06:25:00;;;;;;;3.78;2.90;;;;;;;48.06;7.80;99438.66;5092323;28;20449;-52
2021/05/16 06:27:26;;;;;;;3.17;2.90;;;;;;;48.21;7.47;99430.28;5092014;28;20036;-50
2021/05/16 06:29:51;;;;;;;2.80;2.60;;;;;;;48.31;7.36;99421.06;5092464;28;20035;-51
2021/05/16 06:32:17;;;;;;;4.13;2.72;;;;;;;48.47;7.55;99423.66;5093725;28;20475;-50
2021/05/16 06:34:42;;;;;;;5.18;3.03;;;;;;;48.64;7.25;99424.22;5096880;28;20028;-50
2021/05/16 06:37:08;;;;;;;3.08;2.88;;;;;;;48.45;7.21;99419.56;5100485;28;20889;-53
2021/05/16 06:39:33;;;;;;;4.35;2.90;;;;;;;48.34;7.45;99425.97;5091419;28;20446;-51
2021/05/16 06:41:59;;;;;;;4.90;3.00;;;;;;;48.48;6.89;99433.00;5097609;28;20040;-53
2021/05/16 06:44:25;;;;;;;3.75;2.90;;;;;;;48.84;6.81;99422.78;5100371;28;20057;-53
2021/05/16 06:46:51;;;;;;;3.85;3.15;;;;;;;49.04;6.74;99407.44;5101934;28;20122;-49
2021/05/16 06:49:17;;;;;;;4.40;2.83;;;;;;;49.63;6.30;99430.13;5102287;28;20112;-51
2021/05/16 06:51:42;;;;;;;3.38;2.95;;;;;;;50.15;6.17;99414.81;5099070;28;20358;-55
2021/05/16 06:54:08;;;;;;;4.22;3.88;;;;;;;50.66;6.04;99414.84;5092487;28;20040;-55
2021/05/16 06:56:35;;;;;;;3.38;3.17;;;;;;;51.29;5.59;99433.47;5092757;28;20044;-53
2021/05/16 06:59:00;;;;;;;2.90;2.78;;;;;;;50.64;5.79;99423.78;5092575;28;20107;-53
2021/05/16 07:01:26;;;;;;;6.22;3.03;;;;;;;50.35;6.01;99423.00;5092211;28;20127;-50
2021/05/16 07:03:51;;;;;;;3.47;3.22;;;;;;;49.87;6.17;99421.25;5092578;28;20032;-50
2021/05/16 07:06:17;;;;;;;3.20;2.90;;;;;;;50.06;6.34;99420.91;5092730;28;20516;-51
2021/05/16 07:08:42;;;;;;;3.80;3.33;;;;;;;50.35;5.98;99418.09;5092053;28;20032;-51
2021/05/16 07:11:08;;;;;;;3.42;2.80;;;;;;;51.25;5.43;99416.38;5092731;28;20043;-53
2021/05/16 07:13:33;;;;;;;3.03;2.72;;;;;;;51.89;5.40;99423.03;5092451;28;20043;-54
2021/05/16 07:15:59;;;;;;;5.32;3.13;;;;;;;52.31;5.25;99417.44;5092028;28;20043;-51
2021/05/16 07:18:24;;;;;;;3.42;3.10;;;;;;;51.87;4.61;99416.13;5092124;28;20035;-53
2021/05/16 07:20:51;;;;;;;3.53;2.83;;;;;;;51.61;4.82;99426.81;5092530;28;20117;-51
2021/05/16 07:23:18;;;;;;;3.03;2.83;;;;;;;50.98;5.19;99392.03;5092539;28;20122;-51
2021/05/16 07:25:43;;;;;;;3.20;3.00;;;;;;;51.23;5.03;99379.72;5090761;28;20051;-55
2021/05/16 07:28:09;;;;;;;3.13;2.92;;;;;;;51.98;4.60;99411.16;5090851;28;20043;-49
2021/05/16 07:30:34;;;;;;;3.50;3.17;;;;;;;52.42;4.38;99410.88;5091975;28;20076;-50
2021/05/16 07:33:00;;;;;;;3.45;3.15;;;;;;;53.25;4.01;99399.41;5092002;28;20028;-63
2021/05/16 07:35:25;;;;;;;3.70;3.50;;;;;;;54.05;3.19;99424.13;5091531;28;20362;-51
2021/05/16 07:37:51;;;;;;;5.07;3.58;;;;;;;54.04;3.39;99390.19;5091706;28;20088;-58
2021/05/16 07:40:17;;;;;;;3.38;3.08;;;;;;;54.55;3.47;99424.56;5091781;28;20063;-53
2021/05/16 07:42:43;;;;;;;3.60;3.40;;;;;;;54.65;3.07;99417.81;5091602;28;20093;-54
2021/05/16 07:45:11;;;;;;;3.75;3.55;;;;;;;54.08;3.23;99408.94;5091331;28;20059;-52
2021/05/16 07:47:37;;;;;;;3.70;3.50;;;;;;;52.38;4.14;99411.72;5091962;28;20489;-55
2021/05/16 07:50:05;;;;;;;3.35;3.05;;;;;;;51.68;4.45;99424.78;5091759;28;20481;-54
2021/05/16 07:52:31;;;;;;;3.30;2.72;;;;;;;51.25;4.51;99427.78;5091572;28;20039;-54
2021/05/16 07:54:56;;;;;;;3.05;2.85;;;;;;;48.43;6.00;99432.13;5089793;28;20043;-51
2021/05/16 07:57:21;;;;;;;2.67;2.40;;;;;;;45.82;7.65;99436.78;5090337;28;20131;-61
2021/05/16 07:59:47;;;;;;;3.03;2.63;;;;;;;44.34;8.46;99439.72;5091823;28;20439;-54
2021/05/16 08:02:13;;;;;;;3.10;2.33;;;;;;;44.00;8.86;99414.63;5091422;28;20040;-53
2021/05/16 08:04:38;;;;;;;2.92;2.65;;;;;;;43.62;8.86;99429.22;5091487;28;20052;-54
2021/05/16 08:07:04;;;;;;;2.70;2.50;;;;;;;43.72;9.28;99438.00;5091196;28;20028;-55
2021/05/16 08:09:29;;;;;;;2.38;2.10;;;;;;;43.44;8.97;99427.50;5090955;28;20111;-50
2021/05/16 08:11:55;;;;;;;2.95;2.40;;;;;;;41.40;10.57;99429.28;5086906;28;20023;-52
2021/05/16 08:14:20;;;;;;;3.00;2.67;;;;;;;39.94;11.68;99446.84;5091008;28;20420;-47
2021/05/16 08:16:46;;;;;;;4.25;2.33;;;;;;;38.37;13.20;99446.88;5094902;28;20032;-51
2021/05/16 08:19:12;;;;;;;2.42;2.30;;;;;;;36.58;14.52;99437.41;5102490;28;20507;-51
2021/05/16 08:21:38;;;;;;;4.30;2.30;;;;;;;34.91;15.93;99452.09;5090649;28;20841;-55
2021/05/16 08:24:05;;;;;;;4.00;2.53;;;;;;;33.52;17.50;99409.66;5090500;28;20416;-51
2021/05/16 08:26:31;;;;;;;2.55;2.30;;;;;;;32.54;18.94;99430.25;5095407;28;20131;-47
2021/05/16 08:28:57;;;;;;;4.20;2.03;;;;;;;31.31;20.03;99421.56;5105286;28;20122;-53
2021/05/16 08:31:22;;;;;;;3.60;2.13;;;;;;;30.58;20.50;99437.75;5100049;28;20035;-51
2021/05/16 08:33:48;;;;;;;2.42;2.22;;;;;;;30.13;21.90;99450.94;5097493;28;20118;-51
2021/05/16 08:36:13;;;;;;;5.07;2.38;;;;;;;29.87;22.10;99453.44;5106277;28;20084;-53
2021/05/16 08:38:39;;;;;;;3.20;2.30;;;;;;;29.48;22.66;99428.81;5093856;28;20031;-55
2021/05/16 08:41:04;;;;;;;4.05;2.50;;;;;;;29.13;22.62;99454.81;5103487;28;20497;-50
2021/05/16 08:43:30;;;;;;;4.03;2.20;;;;;;;28.91;22.90;99463.91;5100238;28;20093;-49
2021/05/16 08:45:55;;;;;;;3.75;1.92;;;;;;;28.64;22.72;99437.06;5096027;28;20077;-52
2021/05/16 08:48:21;;;;;;;4.13;2.20;;;;;;;28.57;23.04;99452.94;5107331;28;20087;-55
2021/05/16 08:50:47;;;;;;;3.25;2.17;;;;;;;28.58;23.49;99457.34;5090212;28;20110;-52
2021/05/16 08:53:12;;;;;;;3.90;2.72;;;;;;;28.03;23.18;99385.47;5088722;28;20043;-52
2021/05/16 08:55:38;;;;;;;3.40;2.20;;;;;;;28.42;23.33;99440.59;5088126;28;20135;-54
2021/05/16 08:58:04;;;;;;;2.08;1.98;;;;;;;28.45;23.43;99450.28;5088870;28;20085;-51
2021/05/16 09:00:32;;;;;;;3.95;2.40;;;;;;;28.16;23.63;99425.59;5090042;28;20032;-52
2021/05/16 09:03:06;;;;;;;2.85;2.55;;;;;;;28.18;24.26;99462.78;5090212;28;20036;-52
2021/05/16 09:05:43;;;;;;;2.30;2.10;;;;;;;28.28;23.90;99466.81;5090469;28;20153;-57
2021/05/16 09:08:13;;;;;;;3.30;2.05;;;;;;;28.22;24.17;99469.47;5090246;28;20578;-53
2021/05/16 09:10:42;;;;;;;3.58;2.25;;;;;;;27.95;24.61;99433.50;5089868;28;20047;-54
2021/05/16 09:13:21;;;;;;;3.45;2.35;;;;;;;27.87;24.97;99451.22;5089839;28;20082;-55
2021/05/16 09:16:01;;;;;;;4.30;2.83;;;;;;;27.91;25.19;99463.41;5090642;28;20125;-50
2021/05/16 09:18:32;;;;;;;3.33;2.55;;;;;;;27.98;25.14;99454.19;5090287;28;20507;-50
2021/05/16 09:21:17;;;;;;;3.50;2.30;;;;;;;28.01;25.53;99451.75;5089588;28;20032;-54
2021/05/16 09:23:43;;;;;;;4.03;2.55;;;;;;;27.84;25.18;99451.72;5089518;28;20032;-53
2021/05/16 09:26:13;;;;;;;2.92;2.20;;;;;;;27.78;25.43;99450.78;5089742;28;20917;-52
2021/05/16 09:28:38;;;;;;;2.50;2.30;;;;;;;27.91;24.68;99441.41;5089538;28;20424;-52
2021/05/16 09:31:06;;;;;;;2.72;2.25;;;;;;;27.91;24.41;99446.06;5089364;28;20039;-53
2021/05/16 09:33:32;;;;;;;2.30;2.05;;;;;;;27.95;24.39;99452.75;5089371;28;20177;-52
2021/05/16 09:36:04;;;;;;;1.90;1.80;;;;;;;27.93;24.40;99443.91;5089561;28;20082;-52
2021/05/16 09:38:29;;;;;;;2.22;2.03;;;;;;;27.72;24.41;99454.53;5087769;28;20040;-52
2021/05/16 09:40:58;;;;;;;3.03;2.20;;;;;;;27.02;25.16;99417.97;5093626;28;20040;-52
2021/05/16 09:43:27;;;;;;;4.40;2.05;;;;;;;27.14;24.83;99470.13;5093808;28;20096;-53
2021/05/16 09:45:57;;;;;;;2.17;1.90;;;;;;;26.97;25.71;99459.88;5093835;28;20497;-48
2021/05/16 09:48:29;;;;;;;3.35;2.25;;;;;;;26.91;25.65;99455.34;5093405;28;20032;-51
2021/05/16 09:51:03;;;;;;;3.17;2.20;;;;;;;27.17;25.93;99453.16;5089680;28;20028;-59
2021/05/16 09:53:29;;;;;;;2.75;2.30;;;;;;;27.29;25.80;99459.47;5093506;28;20047;-54
2021/05/16 09:56:12;;;;;;;3.35;2.38;;;;;;;27.21;25.94;99435.09;5098008;28;20066;-56
2021/05/16 09:58:38;;;;;;;5.20;2.20;;;;;;;27.14;26.39;99445.41;5108509;28;20067;-55
2021/05/16 10:01:04;;;;;;;3.97;2.15;;;;;;;26.78;26.40;99434.44;5092819;28;20060;-51
2021/05/16 10:03:30;;;;;;;3.70;2.33;;;;;;;26.96;26.49;99449.16;5093108;28;20112;-55
2021/05/16 10:05:56;;;;;;;2.83;2.35;;;;;;;27.08;26.05;99438.97;5093187;28;20031;-53
2021/05/16 10:08:22;;;;;;;4.30;2.53;;;;;;;27.22;25.95;99454.09;5092827;28;20427;-60
2021/05/16 10:10:47;;;;;;;4.45;2.47;;;;;;;27.35;25.80;99446.63;5092506;28;20028;-52
2021/05/16 10:13:14;;;;;;;2.72;1.63;;;;;;;27.24;25.90;99440.09;5092387;28;20055;-51
2021/05/16 10:15:40;;;;;;;2.85;2.13;;;;;;;27.10;25.88;99446.97;5109407;28;20028;-52
2021/05/16 10:18:09;;;;;;;4.55;2.10;;;;;;;26.73;26.36;99451.63;5096656;28;20039;-48
2021/05/16 10:20:37;;;;;;;3.17;2.30;;;;;;;26.38;26.68;99452.50;5090480;28;20036;-53
2021/05/16 10:23:04;;;;;;;2.72;2.53;;;;;;;25.97;27.51;99440.47;5091626;28;20043;-54
2021/05/16 10:25:41;;;;;;;2.35;2.15;;;;;;;25.93;27.44;99451.91;5092968;28;20039;-56
2021/05/16 10:28:07;;;;;;;2.90;2.60;;;;;;;26.06;27.55;99447.31;5092887;28;20093;-49
2021/05/16 10:30:32;;;;;;;2.70;2.13;;;;;;;26.34;27.16;99449.38;5093018;28;20078;-52
2021/05/16 10:32:58;;;;;;;3.65;2.47;;;;;;;26.28;26.73;99391.84;5093147;28;20181;-48
2021/05/16 10:35:23;;;;;;;3.08;2.13;;;;;;;26.49;26.62;99435.19;5091479;28;20032;-59
2021/05/16 10:37:51;;;;;;;2.20;2.00;;;;;;;26.47;27.23;99451.06;5092688;28;20119;-57
2021/05/16 10:40:20;;;;;;;3.10;2.20;;;;;;;26.34;27.78;99443.88;5092802;28;20420;-51
2021/05/16 10:42:45;;;;;;;2.60;2.40;;;;;;;25.94;27.94;99387.75;5093023;28;20044;-51
2021/05/16 10:45:22;;;;;;;3.30;2.53;;;;;;;26.36;27.98;99438.19;5092053;28;20035;-56
2021/05/16 10:47:50;;;;;;;5.20;2.20;;;;;;;26.30;27.54;99439.13;5092501;28;20063;-55
2021/05/16 10:50:24;;;;;;;2.55;2.30;;;;;;;26.21;27.49;99428.50;5091791;28;20043;-53
2021/05/16 10:53:00;;;;;;;3.25;2.40;;;;;;;26.22;27.66;99441.13;5091740;28;20105;-54
2021/05/16 10:55:28;;;;;;;3.05;2.25;;;;;;;26.10;27.52;99440.25;5090631;28;20462;-50
2021/05/16 10:57:54;;;;;;;3.72;2.20;;;;;;;26.11;27.60;99421.88;5092165;28;20040;-53
2021/05/16 11:00:19;;;;;;;3.28;2.50;;;;;;;26.25;27.92;99434.34;5092192;28;20527;-54
2021/05/16 11:03:07;;;;;;;3.92;2.47;;;;;;;26.43;27.48;99438.88;5091028;28;20043;-52
2021/05/16 11:05:57;;;;;;;6.72;2.75;;;;;;;26.39;27.41;99423.97;5090523;28;20031;-57
2021/05/16 11:08:22;;;;;;;5.13;2.10;;;;;;;26.51;27.12;99430.28;5092087;28;20036;-51
2021/05/16 11:10:52;;;;;;;2.35;2.15;;;;;;;26.60;27.09;99428.00;5091813;28;20031;-52
2021/05/16 11:13:32;;;;;;;2.30;2.10;;;;;;;26.91;26.38;99444.38;5092323;28;20071;-54
2021/05/16 11:16:06;;;;;;;3.53;2.20;;;;;;;27.20;26.38;99441.66;5090454;28;20089;-56
2021/05/16 11:18:36;;;;;;;2.30;2.10;;;;;;;27.39;25.90;99433.25;5089767;28;20114;-52
2021/05/16 11:21:07;;;;;;;6.15;2.35;;;;;;;27.38;26.13;99437.94;5089112;28;20040;-54
2021/05/16 11:23:34;;;;;;;3.15;1.90;;;;;;;27.31;25.95;99426.22;5089638;28;20046;-51
2021/05/16 11:26:05;;;;;;;3.60;1.90;;;;;;;27.34;25.39;99434.81;5089740;28;20525;-53
2021/05/16 11:28:36;;;;;;;3.72;1.77;;;;;;;27.34;25.18;99431.22;5089412;28;20043;-57
2021/05/16 11:31:13;;;;;;;1.75;1.65;;;;;;;27.29;24.39;99431.97;5090874;28;20032;-55
2021/05/16 11:33:41;;;;;;;3.38;1.83;;;;;;;27.16;24.71;99462.47;5092094;28;20062;-55